Time;durP1;ratioP1;P1;durP2;ratioP2;P2;SDS_P1;SDS_P2;PMS_P1;PMS_P2;Temp;Humidity;BMP_temperature;BMP_pressure;BME280_temperature;BME280_humidity;BME280_pressure;Samples;Min_cycle;Max_cycle;Signal;HPM_P1;HPM_P2
2023/05/03 00:00:36;;;;;;;4.20;3.80;;;15.00;61.10;;;;;;5078773;28;20448;-69
2023/05/03 00:03:05;;;;;;;5.27;3.90;;;15.00;61.10;;;;;;5077086;28;20493;-70
2023/05/03 00:05:33;;;;;;;6.63;4.53;;;15.00;61.20;;;;;;5088054;28;20470;-70
2023/05/03 00:08:01;;;;;;;4.43;3.97;;;14.90;61.20;;;;;;5057071;28;20454;-70
2023/05/03 00:10:28;;;;;;;4.63;4.03;;;14.90;61.20;;;;;;5072576;28;20598;-70
2023/05/03 00:12:55;;;;;;;6.50;4.40;;;14.90;61.30;;;;;;5083519;28;20459;-70
2023/05/03 00:15:22;;;;;;;4.80;4.30;;;14.80;61.30;;;;;;5083948;28;20452;-70
2023/05/03 00:17:49;;;;;;;5.60;4.10;;;14.80;61.80;;;;;;5079577;28;21009;-70
2023/05/03 00:20:16;;;;;;;4.90;4.40;;;14.70;61.80;;;;;;5075266;28;20448;-70
2023/05/03 00:22:44;;;;;;;5.43;4.50;;;14.70;61.80;;;;;;5072436;28;20494;-70
2023/05/03 00:25:11;;;;;;;5.97;4.33;;;14.70;61.80;;;;;;5053155;28;20444;-70
2023/05/03 00:27:38;;;;;;;4.70;4.20;;;14.70;62.00;;;;;;5072656;28;20821;-69
2023/05/03 00:30:06;;;;;;;4.63;4.13;;;14.60;62.00;;;;;;5083346;28;20493;-70
2023/05/03 00:32:33;;;;;;;5.07;4.53;;;14.60;62.10;;;;;;5085961;28;20896;-70
2023/05/03 00:35:00;;;;;;;5.67;4.00;;;14.60;62.30;;;;;;5080160;28;20443;-70
2023/05/03 00:37:28;;;;;;;4.57;4.17;;;14.50;62.40;;;;;;5071966;28;20477;-70
2023/05/03 00:39:56;;;;;;;5.13;4.73;;;14.50;62.70;;;;;;5072007;28;20451;-70
2023/05/03 00:42:23;;;;;;;4.70;4.20;;;14.50;63.80;;;;;;5076679;28;20438;-70
2023/05/03 00:44:50;;;;;;;4.87;4.37;;;14.40;63.10;;;;;;5092355;28;20865;-70
2023/05/03 00:47:17;;;;;;;5.67;4.10;;;14.40;63.20;;;;;;5092370;28;20446;-69
2023/05/03 00:49:44;;;;;;;4.90;4.23;;;14.40;63.20;;;;;;5083725;28;20815;-70
2023/05/03 00:52:12;;;;;;;5.07;4.50;;;14.30;63.10;;;;;;5071142;28;21362;-70
2023/05/03 00:54:39;;;;;;;6.87;4.77;;;14.30;63.10;;;;;;5081387;28;20456;-70
2023/05/03 00:57:07;;;;;;;6.17;4.60;;;14.30;63.10;;;;;;5084943;28;20463;-70
2023/05/03 00:59:34;;;;;;;6.43;4.37;;;14.30;63.60;;;;;;5071486;28;20458;-70
2023/05/03 01:02:01;;;;;;;5.10;4.60;;;14.20;63.50;;;;;;5077777;28;20445;-70
2023/05/03 01:04:29;;;;;;;6.27;4.30;;;14.20;63.60;;;;;;5081894;28;20538;-69
2023/05/03 01:07:09;;;;;;;5.23;4.73;;;14.20;63.60;;;;;;5080172;28;20482;-70
2023/05/03 01:09:42;;;;;;;6.50;4.67;;;14.20;63.70;;;;;;5070085;28;20485;-71
2023/05/03 01:12:23;;;;;;;7.40;4.60;;;14.10;63.80;;;;;;5072124;28;20509;-70
2023/05/03 01:15:02;;;;;;;6.33;4.43;;;14.10;64.00;;;;;;5071725;28;20451;-70
2023/05/03 01:17:38;;;;;;;8.77;5.10;;;14.10;64.10;;;;;;5081275;28;20484;-70
2023/05/03 01:20:09;;;;;;;5.50;4.80;;;14.00;64.00;;;;;;5068510;28;21034;-70
2023/05/03 01:22:43;;;;;;;5.40;4.47;;;14.00;64.00;;;;;;5090003;28;20482;-70
2023/05/03 01:25:13;;;;;;;7.67;4.57;;;14.00;64.10;;;;;;5088149;28;20477;-71
2023/05/03 01:27:41;;;;;;;5.70;5.10;;;14.00;64.10;;;;;;5088822;28;20454;-70
2023/05/03 01:30:10;;;;;;;6.50;5.07;;;13.90;64.10;;;;;;5085774;28;20457;-70
2023/05/03 01:32:50;;;;;;;8.57;4.83;;;13.90;64.10;;;;;;5079803;28;20952;-69
2023/05/03 01:35:23;;;;;;;4.70;4.23;;;13.90;64.30;;;;;;5087626;28;20478;-71
2023/05/03 01:37:51;;;;;;;6.50;4.67;;;13.80;64.20;;;;;;5070598;28;20451;-69
2023/05/03 01:40:22;;;;;;;7.07;4.63;;;13.80;64.40;;;;;;5080329;28;20777;-70
2023/05/03 01:42:51;;;;;;;4.90;4.30;;;13.80;64.60;;;;;;5071537;28;20915;-70
2023/05/03 01:45:18;;;;;;;5.47;4.97;;;13.70;64.50;;;;;;5075533;28;20529;-70
2023/05/03 01:47:45;;;;;;;5.30;4.63;;;13.70;64.60;;;;;;5072289;28;20447;-70
2023/05/03 01:50:12;;;;;;;5.60;4.87;;;13.70;64.60;;;;;;5082074;28;20489;-70
2023/05/03 01:52:39;;;;;;;6.53;5.17;;;13.70;64.60;;;;;;5071602;28;21019;-71
2023/05/03 01:55:06;;;;;;;7.40;4.90;;;13.70;64.80;;;;;;5084548;28;20451;-70
2023/05/03 01:57:35;;;;;;;7.17;4.90;;;13.60;64.90;;;;;;5077651;28;20750;-70
2023/05/03 02:00:02;;;;;;;5.10;4.60;;;13.60;65.10;;;;;;5070492;28;20455;-70
2023/05/03 02:02:29;;;;;;;6.27;4.60;;;13.60;65.20;;;;;;5092502;28;20462;-70
2023/05/03 02:04:55;;;;;;;6.60;5.10;;;13.50;65.30;;;;;;5073566;28;20490;-69
2023/05/03 02:07:22;;;;;;;5.83;4.87;;;13.50;65.40;;;;;;5073673;28;20439;-70
2023/05/03 02:09:49;;;;;;;6.13;5.00;;;13.40;65.50;;;;;;5076590;28;20482;-70
2023/05/03 02:12:16;;;;;;;6.13;5.20;;;13.40;65.70;;;;;;5092805;28;20478;-70
2023/05/03 02:14:44;;;;;;;5.57;4.93;;;13.40;65.70;;;;;;5084640;28;20458;-70
2023/05/03 02:17:11;;;;;;;4.80;4.33;;;13.30;66.30;;;;;;5075212;28;20471;-70
2023/05/03 02:19:38;;;;;;;5.20;4.57;;;13.30;65.50;;;;;;5082477;28;20450;-70
2023/05/03 02:22:04;;;;;;;5.80;4.57;;;13.30;65.50;;;;;;5093342;28;20458;-71
2023/05/03 02:24:34;;;;;;;6.63;4.93;;;13.20;65.50;;;;;;5075348;28;20542;-70
2023/05/03 02:27:03;;;;;;;5.47;4.90;;;13.20;65.80;;;;;;5083866;28;20553;-71
2023/05/03 02:29:31;;;;;;;6.93;5.33;;;13.20;65.90;;;;;;5090207;28;20503;-71
2023/05/03 02:31:59;;;;;;;5.83;5.00;;;13.20;66.00;;;;;;5092518;28;20474;-70
2023/05/03 02:34:26;;;;;;;7.50;5.27;;;13.10;66.00;;;;;;5082891;28;20535;-70
2023/05/03 02:36:53;;;;;;;6.27;5.27;;;13.10;66.00;;;;;;5084874;28;20478;-70
2023/05/03 02:39:20;;;;;;;5.77;4.87;;;13.10;66.30;;;;;;5073563;28;20976;-70
2023/05/03 02:41:48;;;;;;;6.07;5.10;;;13.00;66.30;;;;;;5087419;28;20541;-70
2023/05/03 02:44:15;;;;;;;7.30;5.70;;;13.00;66.70;;;;;;5073976;28;20443;-70
2023/05/03 02:46:42;;;;;;;6.03;5.07;;;13.00;66.50;;;;;;5082536;28;20861;-70
2023/05/03 02:49:10;;;;;;;5.97;5.37;;;13.00;66.50;;;;;;5082781;28;20452;-70
2023/05/03 02:51:37;;;;;;;6.67;5.43;;;13.00;66.50;;;;;;5073698;28;20483;-70
2023/05/03 02:54:04;;;;;;;7.57;5.53;;;13.00;66.60;;;;;;5086126;28;20454;-70
2023/05/03 02:56:32;;;;;;;6.60;5.03;;;12.90;66.50;;;;;;5073694;28;20466;-70
2023/05/03 02:58:59;;;;;;;5.27;4.63;;;12.90;66.60;;;;;;5084066;28;20485;-70
2023/05/03 03:01:26;;;;;;;6.70;5.20;;;12.90;66.60;;;;;;5085627;28;20466;-70
2023/05/03 03:03:53;;;;;;;6.10;5.50;;;12.90;66.60;;;;;;5082215;28;20466;-70
2023/05/03 03:06:22;;;;;;;7.03;5.40;;;12.90;66.60;;;;;;5085942;28;20451;-70
2023/05/03 03:08:48;;;;;;;6.70;5.20;;;12.90;66.60;;;;;;5081026;28;20454;-69
2023/05/03 03:11:15;;;;;;;5.93;5.07;;;12.80;66.50;;;;;;5092428;28;20482;-70
2023/05/03 03:13:42;;;;;;;7.17;5.03;;;12.80;66.30;;;;;;5084502;28;20458;-70
2023/05/03 03:16:09;;;;;;;6.43;5.00;;;12.80;66.20;;;;;;5084139;28;20450;-70
2023/05/03 03:18:36;;;;;;;6.80;5.40;;;12.70;66.30;;;;;;5084692;28;20558;-70
2023/05/03 03:21:03;;;;;;;8.60;5.20;;;12.70;66.50;;;;;;5082608;28;20443;-70
2023/05/03 03:23:32;;;;;;;5.70;4.97;;;12.70;66.60;;;;;;5079050;28;20537;-70
2023/05/03 03:25:59;;;;;;;9.37;5.00;;;12.70;66.70;;;;;;5091870;28;20561;-69
2023/05/03 03:28:25;;;;;;;6.07;4.93;;;12.70;66.70;;;;;;5094594;28;20530;-70
2023/05/03 03:30:52;;;;;;;6.73;4.97;;;12.70;66.90;;;;;;5086744;28;20447;-70
2023/05/03 03:33:19;;;;;;;7.70;5.40;;;12.60;66.70;;;;;;5074116;28;20451;-70
2023/05/03 03:35:46;;;;;;;6.93;5.07;;;12.70;66.80;;;;;;5080225;28;20542;-69
2023/05/03 03:38:13;;;;;;;6.03;5.43;;;12.60;66.70;;;;;;5094309;28;20471;-70
2023/05/03 03:40:41;;;;;;;6.47;5.03;;;12.50;66.60;;;;;;5087883;28;20454;-70
2023/05/03 03:43:09;;;;;;;8.03;5.33;;;12.60;66.90;;;;;;5074455;28;20439;-70
2023/05/03 03:45:35;;;;;;;6.50;5.00;;;12.50;66.70;;;;;;5074332;28;20479;-70
2023/05/03 03:48:02;;;;;;;6.87;5.30;;;12.50;66.70;;;;;;5080732;28;20450;-70
2023/05/03 03:50:29;;;;;;;5.97;5.17;;;12.50;66.80;;;;;;5086091;28;20486;-70
2023/05/03 03:52:56;;;;;;;6.03;4.90;;;12.50;66.80;;;;;;5074853;28;20490;-70
2023/05/03 03:55:23;;;;;;;6.37;5.47;;;12.50;66.80;;;;;;5086425;28;20442;-70
2023/05/03 03:57:51;;;;;;;7.63;4.80;;;12.40;66.70;;;;;;5076972;28;20471;-70
2023/05/03 04:00:18;;;;;;;6.83;6.00;;;12.40;66.70;;;;;;5088630;28;20453;-70
2023/05/03 04:02:45;;;;;;;6.33;5.03;;;12.40;66.90;;;;;;5070265;28;20435;-70
2023/05/03 04:05:12;;;;;;;8.87;5.40;;;12.30;67.30;;;;;;5074763;28;20507;-70
2023/05/03 04:07:39;;;;;;;7.53;5.80;;;12.30;67.10;;;;;;5073269;28;20546;-70
2023/05/03 04:10:07;;;;;;;8.27;5.60;;;12.30;67.20;;;;;;5078175;28;20444;-70
2023/05/03 04:12:34;;;;;;;6.20;5.60;;;12.30;67.30;;;;;;5058887;28;20857;-70
2023/05/03 04:15:03;;;;;;;6.07;5.47;;;12.30;67.40;;;;;;5083456;28;20479;-70
2023/05/03 04:17:30;;;;;;;7.70;5.93;;;12.30;67.20;;;;;;5092960;28;20458;-70
2023/05/03 04:19:57;;;;;;;6.03;5.47;;;12.30;67.10;;;;;;5077761;28;20985;-70
2023/05/03 04:22:24;;;;;;;7.00;5.33;;;12.20;67.10;;;;;;5079577;28;20451;-69
2023/05/03 04:24:53;;;;;;;8.50;5.90;;;12.20;67.30;;;;;;5079311;28;20486;-69
2023/05/03 04:27:20;;;;;;;6.10;5.47;;;12.20;67.50;;;;;;5079508;28;20446;-70
2023/05/03 04:29:47;;;;;;;7.23;5.60;;;12.20;67.70;;;;;;5093126;28;20442;-70
2023/05/03 04:32:22;;;;;;;5.90;5.30;;;12.20;67.80;;;;;;5093604;28;20887;-70
2023/05/03 04:34:49;;;;;;;6.50;5.80;;;12.20;67.80;;;;;;5089175;28;20447;-70
2023/05/03 04:37:16;;;;;;;9.57;6.33;;;12.20;67.70;;;;;;5076426;28;20512;-70
2023/05/03 04:39:44;;;;;;;6.87;5.47;;;12.20;67.90;;;;;;5092732;28;20508;-70
2023/05/03 04:42:12;;;;;;;7.90;6.30;;;12.20;67.80;;;;;;5092560;28;20575;-69
2023/05/03 04:44:39;;;;;;;8.73;6.00;;;12.20;67.90;;;;;;5094902;28;20470;-74
2023/05/03 04:47:05;;;;;;;7.40;5.77;;;12.20;67.80;;;;;;5083552;28;20533;-70
2023/05/03 04:49:34;;;;;;;9.17;6.30;;;12.20;67.90;;;;;;5094858;28;20450;-70
2023/05/03 04:52:01;;;;;;;7.07;5.93;;;12.20;68.10;;;;;;5093458;28;20490;-70
2023/05/03 04:54:28;;;;;;;6.63;5.60;;;12.20;68.30;;;;;;5095843;28;20471;-70
2023/05/03 04:56:55;;;;;;;6.70;5.80;;;12.20;68.30;;;;;;5088197;28;20486;-69
2023/05/03 04:59:22;;;;;;;8.30;6.17;;;12.20;68.40;;;;;;5085833;28;20473;-69
2023/05/03 05:01:49;;;;;;;7.03;5.40;;;12.30;68.60;;;;;;5076346;28;20466;-70
2023/05/03 05:04:16;;;;;;;8.27;6.50;;;12.30;68.60;;;;;;5090135;28;20485;-70
2023/05/03 05:06:44;;;;;;;8.87;6.30;;;12.30;68.60;;;;;;5085709;28;20448;-70
2023/05/03 05:09:21;;;;;;;8.90;6.33;;;12.30;68.80;;;;;;5072922;28;20451;-70
2023/05/03 05:11:48;;;;;;;7.97;6.47;;;12.40;69.00;;;;;;5075640;28;20565;-69
2023/05/03 05:14:15;;;;;;;9.10;5.97;;;12.40;68.90;;;;;;5075193;28;20438;-69
2023/05/03 05:16:42;;;;;;;6.90;5.73;;;12.50;69.00;;;;;;5083329;28;20488;-69
2023/05/03 05:19:09;;;;;;;7.80;6.30;;;12.50;68.90;;;;;;5080492;28;20443;-69
2023/05/03 05:21:36;;;;;;;8.90;6.40;;;12.50;68.90;;;;;;5084659;28;20458;-70
2023/05/03 05:24:04;;;;;;;7.77;6.00;;;12.60;69.40;;;;;;5089140;28;20478;-69
2023/05/03 05:26:31;;;;;;;9.30;6.97;;;12.60;69.50;;;;;;5083372;28;20451;-70
2023/05/03 05:29:00;;;;;;;8.83;6.37;;;12.70;69.50;;;;;;5086210;28;20458;-70
2023/05/03 05:31:26;;;;;;;8.57;6.23;;;12.70;69.50;;;;;;5087152;28;20496;-69
2023/05/03 05:33:53;;;;;;;9.07;6.43;;;12.80;69.50;;;;;;5089704;28;20857;-70
2023/05/03 05:36:20;;;;;;;7.90;6.20;;;12.80;69.40;;;;;;5077905;28;20450;-71
2023/05/03 05:38:47;;;;;;;9.67;6.70;;;12.90;69.60;;;;;;5081383;28;20538;-70
2023/05/03 05:41:15;;;;;;;8.67;6.90;;;13.00;69.60;;;;;;5072263;28;20481;-70
2023/05/03 05:43:42;;;;;;;9.20;6.80;;;13.00;69.50;;;;;;5076930;28;21001;-71
2023/05/03 05:46:09;;;;;;;8.40;6.77;;;13.10;69.50;;;;;;5088074;28;20895;-70
2023/05/03 05:48:36;;;;;;;8.77;6.37;;;13.10;70.30;;;;;;5073186;28;20871;-70
2023/05/03 05:51:03;;;;;;;9.13;6.37;;;13.20;70.30;;;;;;5090068;28;21011;-70
2023/05/03 05:53:30;;;;;;;10.57;6.90;;;13.20;69.60;;;;;;5083904;28;20581;-70
2023/05/03 05:55:57;;;;;;;8.13;5.93;;;13.30;69.60;;;;;;5091349;28;20477;-70
2023/05/03 05:58:25;;;;;;;6.50;5.77;;;13.30;69.70;;;;;;5076698;28;20463;-70
2023/05/03 06:01:04;;;;;;;7.23;6.53;;;13.40;69.80;;;;;;5079200;28;20875;-70
2023/05/03 06:03:31;;;;;;;8.57;6.63;;;13.50;70.00;;;;;;5072985;28;20479;-70
2023/05/03 06:05:58;;;;;;;9.90;6.90;;;13.50;70.00;;;;;;5079847;28;20490;-70
2023/05/03 06:08:25;;;;;;;8.50;6.43;;;13.60;70.20;;;;;;5088312;28;20537;-70
2023/05/03 06:11:07;;;;;;;8.17;6.67;;;13.70;70.10;;;;;;5077687;28;20554;-70
2023/05/03 06:13:37;;;;;;;9.30;6.63;;;13.70;70.10;;;;;;5073048;28;20485;-69
2023/05/03 06:16:04;;;;;;;8.43;6.30;;;13.80;70.10;;;;;;5079199;28;20478;-69
2023/05/03 06:18:31;;;;;;;7.63;5.87;;;13.90;69.80;;;;;;5084013;28;20542;-69
2023/05/03 06:20:58;;;;;;;10.63;6.87;;;13.90;69.70;;;;;;5077435;28;20453;-70
2023/05/03 06:23:26;;;;;;;9.83;7.17;;;14.00;69.80;;;;;;5089717;28;20531;-69
2023/05/03 06:25:53;;;;;;;7.23;6.40;;;14.10;69.90;;;;;;5074851;28;20463;-70
2023/05/03 06:28:20;;;;;;;7.10;6.37;;;14.10;69.60;;;;;;5069764;28;21106;-70
2023/05/03 06:30:50;;;;;;;8.23;6.43;;;14.20;69.60;;;;;;5068922;28;20481;-69
2023/05/03 06:33:17;;;;;;;8.17;6.00;;;14.20;70.20;;;;;;5070078;28;20975;-70
2023/05/03 06:35:45;;;;;;;7.13;6.23;;;14.30;69.30;;;;;;5071160;28;20443;-70
2023/05/03 06:38:13;;;;;;;10.33;6.60;;;14.40;69.30;;;;;;5073889;28;20452;-70
2023/05/03 06:40:41;;;;;;;7.63;6.33;;;14.50;68.30;;;;;;5069377;28;20977;-71
2023/05/03 06:43:08;;;;;;;9.27;6.00;;;14.60;67.70;;;;;;5070010;28;20455;-70
2023/05/03 06:45:35;;;;;;;8.03;6.13;;;14.60;67.90;;;;;;5069826;28;20454;-70
2023/05/03 06:48:03;;;;;;;11.13;6.13;;;14.70;67.70;;;;;;5085172;28;20446;-70
2023/05/03 06:50:30;;;;;;;10.03;6.23;;;14.80;67.50;;;;;;5092968;28;20454;-70
2023/05/03 06:52:57;;;;;;;6.40;5.57;;;14.90;67.80;;;;;;5093712;28;20486;-70
2023/05/03 06:55:24;;;;;;;10.47;5.97;;;14.90;67.30;;;;;;5093156;28;20529;-70
2023/05/03 06:57:52;;;;;;;8.30;5.60;;;15.00;67.40;;;;;;5082176;28;20902;-70
2023/05/03 07:00:20;;;;;;;9.60;6.40;;;15.10;67.50;;;;;;5072522;28;20517;-70
2023/05/03 07:02:47;;;;;;;9.33;5.93;;;15.20;67.20;;;;;;5072371;28;20539;-70
2023/05/03 07:05:16;;;;;;;9.03;6.50;;;15.30;66.80;;;;;;5072919;28;20455;-70
2023/05/03 07:07:42;;;;;;;9.53;6.40;;;15.40;67.00;;;;;;5073282;28;20500;-70
2023/05/03 07:10:09;;;;;;;9.20;6.17;;;15.40;66.90;;;;;;5072745;28;20440;-70
2023/05/03 07:12:36;;;;;;;9.30;6.53;;;15.50;66.90;;;;;;5072866;28;20536;-71
2023/05/03 07:15:03;;;;;;;8.03;6.70;;;15.50;66.40;;;;;;5073099;28;20454;-70
2023/05/03 07:17:30;;;;;;;8.13;5.70;;;15.60;67.20;;;;;;5079851;28;20461;-70
2023/05/03 07:19:57;;;;;;;10.23;6.57;;;15.70;66.30;;;;;;5093097;28;20519;-70
2023/05/03 07:22:26;;;;;;;7.73;5.70;;;15.80;66.00;;;;;;5092444;28;20480;-70
2023/05/03 08:02:40;;;;;;;7.10;5.97;;;17.00;65.00;;;;;;5092358;28;20395;-70
2023/05/03 08:05:08;;;;;;;12.77;7.37;;;17.20;64.90;;;;;;5093513;28;20471;-70
2023/05/03 08:07:35;;;;;;;7.50;6.13;;;17.30;64.40;;;;;;5087021;28;20458;-70
2023/05/03 08:10:02;;;;;;;8.00;6.07;;;17.40;65.10;;;;;;5093679;28;20448;-70
2023/05/03 08:12:29;;;;;;;8.30;6.27;;;17.50;64.60;;;;;;5093315;28;20578;-70
2023/05/03 08:14:56;;;;;;;8.70;6.03;;;17.60;64.20;;;;;;5093158;28;20829;-70
2023/05/03 08:17:23;;;;;;;7.73;5.63;;;17.70;64.30;;;;;;5090471;28;20478;-70
2023/05/03 08:19:51;;;;;;;6.93;5.90;;;17.80;63.90;;;;;;5073147;28;20862;-70
2023/05/03 08:22:19;;;;;;;8.57;6.30;;;17.90;63.50;;;;;;5072603;28;20935;-71
2023/05/03 08:24:46;;;;;;;7.73;5.97;;;18.00;63.50;;;;;;5073081;28;20483;-70
2023/05/03 08:27:13;;;;;;;8.57;6.13;;;18.10;63.80;;;;;;5073665;28;20539;-70
2023/05/03 08:29:39;;;;;;;7.67;5.63;;;18.20;63.80;;;;;;5087733;28;20562;-70
2023/05/03 08:32:06;;;;;;;8.43;6.40;;;18.30;63.30;;;;;;5072816;28;20466;-70
2023/05/03 08:34:33;;;;;;;7.83;5.77;;;18.30;62.80;;;;;;5072681;28;20569;-70
2023/05/03 08:37:03;;;;;;;7.47;5.60;;;18.40;62.70;;;;;;5072569;28;21151;-68
2023/05/03 08:39:31;;;;;;;7.83;6.80;;;18.50;62.20;;;;;;5088222;28;21006;-70
2023/05/03 08:41:59;;;;;;;8.57;6.70;;;18.50;61.70;;;;;;5085387;28;20557;-70
2023/05/03 08:44:29;;;;;;;7.53;6.30;;;18.60;61.40;;;;;;5092959;28;20442;-70
2023/05/03 08:46:56;;;;;;;8.67;6.63;;;18.70;61.40;;;;;;5093059;28;20484;-70
2023/05/03 08:49:24;;;;;;;7.30;6.60;;;18.70;60.70;;;;;;5092717;28;20478;-70
2023/05/03 08:51:52;;;;;;;8.97;6.80;;;18.90;61.50;;;;;;5092655;28;20452;-70
2023/05/03 08:54:21;;;;;;;7.00;6.30;;;18.90;60.90;;;;;;5092707;28;20478;-70
2023/05/03 08:56:48;;;;;;;11.80;6.80;;;19.00;61.30;;;;;;5092469;28;21065;-70
2023/05/03 08:59:16;;;;;;;7.93;6.63;;;19.10;61.90;;;;;;5091574;28;20579;-70
2023/05/03 09:01:43;;;;;;;10.67;7.37;;;19.20;62.00;;;;;;5092310;28;20208;-70
2023/05/03 09:04:11;;;;;;;8.17;5.20;;;19.20;60.90;;;;;;5092506;28;20196;-70
2023/05/03 09:06:38;;;;;;;8.43;7.20;;;19.30;60.90;;;;;;5077103;28;20197;-70
2023/05/03 09:09:08;;;;;;;6.63;6.03;;;19.40;60.20;;;;;;5071669;28;20229;-70
2023/05/03 09:11:38;;;;;;;8.50;7.00;;;19.50;60.40;;;;;;5071900;28;20675;-70
2023/05/03 09:14:10;;;;;;;7.83;6.00;;;19.60;60.40;;;;;;5071940;28;20229;-70
2023/05/03 09:16:38;;;;;;;6.90;6.10;;;19.70;60.00;;;;;;5085915;28;20663;-71
2023/05/03 09:19:08;;;;;;;8.20;6.57;;;19.80;59.80;;;;;;5092559;28;20207;-70
2023/05/03 09:21:35;;;;;;;7.20;6.40;;;19.90;59.40;;;;;;5092040;28;20263;-70
2023/05/03 09:24:03;;;;;;;7.13;6.43;;;19.90;59.60;;;;;;5092284;28;20205;-70
2023/05/03 09:26:31;;;;;;;7.20;5.87;;;20.00;59.70;;;;;;5092112;28;20204;-70
2023/05/03 09:29:01;;;;;;;7.80;6.90;;;20.10;59.20;;;;;;5092222;28;20260;-70
2023/05/03 09:31:29;;;;;;;7.67;6.87;;;20.10;58.70;;;;;;5092309;28;20296;-70
2023/05/03 09:33:56;;;;;;;10.23;6.50;;;20.10;58.60;;;;;;5092219;28;20228;-70
2023/05/03 09:36:23;;;;;;;8.23;6.33;;;20.20;58.40;;;;;;5091365;28;20196;-70
2023/05/03 09:38:51;;;;;;;7.20;6.50;;;20.30;58.70;;;;;;5092228;28;20215;-70
2023/05/03 09:41:27;;;;;;;6.47;5.87;;;20.40;59.00;;;;;;5091731;28;20231;-70
2023/05/03 09:43:55;;;;;;;8.30;6.40;;;20.40;58.60;;;;;;5092273;28;20458;-70
2023/05/03 09:46:24;;;;;;;8.77;6.33;;;20.50;58.50;;;;;;5080949;28;20232;-70
2023/05/03 09:48:55;;;;;;;7.93;6.37;;;20.60;58.20;;;;;;5071749;28;20651;-70
2023/05/03 09:51:23;;;;;;;8.73;5.70;;;20.70;59.40;;;;;;5071593;28;20213;-70
2023/05/03 09:53:50;;;;;;;6.33;5.40;;;20.80;59.10;;;;;;5071495;28;20320;-70
2023/05/03 09:56:19;;;;;;;8.83;6.70;;;21.00;59.10;;;;;;5036149;28;20205;-71
2023/05/03 09:58:46;;;;;;;7.87;5.80;;;21.20;58.60;;;;;;5071702;28;20233;-70
2023/05/03 10:01:16;;;;;;;8.30;5.67;;;21.30;58.60;;;;;;5071523;28;20546;-69
2023/05/03 10:03:46;;;;;;;9.23;6.57;;;21.30;58.40;;;;;;5071309;28;20209;-70
2023/05/03 10:06:23;;;;;;;8.00;5.90;;;21.50;58.40;;;;;;5071601;28;20204;-70
2023/05/03 10:08:56;;;;;;;8.20;6.40;;;21.70;57.60;;;;;;5051871;28;20212;-70
2023/05/03 10:11:26;;;;;;;6.40;5.60;;;21.80;57.50;;;;;;5051321;28;20249;-71
2023/05/03 10:13:53;;;;;;;6.20;5.60;;;21.90;57.20;;;;;;5051471;28;20230;-71
2023/05/03 10:16:25;;;;;;;6.23;5.63;;;21.90;56.90;;;;;;5071275;28;20197;-70
2023/05/03 10:18:58;;;;;;;5.83;5.00;;;21.90;56.30;;;;;;5091505;28;20205;-70
2023/05/03 10:21:41;;;;;;;6.50;5.30;;;21.90;56.10;;;;;;5092282;28;20208;-70
2023/05/03 10:24:12;;;;;;;7.83;5.80;;;21.90;56.60;;;;;;5095602;28;20561;-70
2023/05/03 10:26:44;;;;;;;6.37;5.70;;;22.10;56.10;;;;;;5095149;28;20239;-70
2023/05/03 10:29:48;;;;;;;7.47;5.10;;;22.20;56.10;;;;;;5095546;28;20685;-70
2023/05/03 10:32:32;;;;;;;6.30;5.17;;;22.20;55.30;;;;;;5094922;28;20230;-70
2023/05/03 10:35:06;;;;;;;8.47;5.63;;;22.40;55.60;;;;;;5095372;28;20726;-70
2023/05/03 10:37:35;;;;;;;7.37;5.10;;;22.50;56.40;;;;;;5075423;28;20211;-70
2023/05/03 10:40:10;;;;;;;6.77;5.47;;;22.60;56.10;;;;;;5089835;28;20292;-70
2023/05/03 10:42:38;;;;;;;6.57;5.07;;;22.70;55.60;;;;;;5095170;28;20578;-70
2023/05/03 10:45:07;;;;;;;5.50;5.00;;;22.80;55.10;;;;;;5095252;28;20232;-70
2023/05/03 10:47:35;;;;;;;5.93;4.57;;;22.80;55.10;;;;;;5094484;28;20200;-69
2023/05/03 10:50:28;;;;;;;11.40;5.30;;;22.90;54.70;;;;;;5094979;28;20212;-70
2023/05/03 10:52:55;;;;;;;5.93;5.07;;;23.00;54.40;;;;;;5094886;28;20208;-70
2023/05/03 10:55:24;;;;;;;6.37;4.70;;;23.10;54.60;;;;;;5095015;28;20596;-69
2023/05/03 10:57:55;;;;;;;6.83;5.47;;;23.10;54.20;;;;;;5094597;28;20216;-70
2023/05/03 11:00:31;;;;;;;6.53;5.47;;;23.00;54.50;;;;;;5094798;28;20216;-69
2023/05/03 11:03:26;;;;;;;5.93;5.07;;;23.10;54.10;;;;;;5094385;28;20208;-70
2023/05/03 11:05:54;;;;;;;7.53;5.40;;;23.20;54.30;;;;;;5094889;28;20233;-70
2023/05/03 11:08:24;;;;;;;6.87;6.10;;;23.30;53.80;;;;;;5077377;28;20211;-71
2023/05/03 11:10:58;;;;;;;5.03;4.53;;;23.30;53.50;;;;;;5074054;28;20229;-70
2023/05/03 11:13:25;;;;;;;5.43;4.37;;;23.30;53.10;;;;;;5074508;28;20673;-70
2023/05/03 11:15:54;;;;;;;7.27;5.10;;;23.50;54.30;;;;;;5074380;28;20209;-70
2023/05/03 11:18:21;;;;;;;4.90;4.43;;;23.70;53.50;;;;;;5074254;28;20803;-70
2023/05/03 11:20:48;;;;;;;5.70;5.00;;;23.70;53.60;;;;;;5073882;28;20209;-70
2023/05/03 11:23:16;;;;;;;4.37;3.80;;;23.80;53.60;;;;;;5089995;28;20210;-71
2023/05/03 11:25:57;;;;;;;4.60;4.20;;;23.80;53.30;;;;;;5094479;28;20582;-71
2023/05/03 11:28:25;;;;;;;6.63;4.87;;;23.70;51.80;;;;;;5091811;28;20229;-71
2023/05/03 11:30:52;;;;;;;5.60;4.10;;;23.80;52.20;;;;;;5094022;28;20231;-71
2023/05/03 11:33:19;;;;;;;5.57;3.60;;;23.90;52.50;;;;;;5093926;28;20204;-71
2023/05/03 11:35:46;;;;;;;4.20;3.60;;;24.10;52.20;;;;;;5094409;28;20615;-70
2023/05/03 11:38:13;;;;;;;6.20;4.53;;;24.10;52.50;;;;;;5094443;28;20293;-70
2023/05/03 11:40:41;;;;;;;5.97;4.27;;;24.30;51.90;;;;;;5094340;28;20210;-71
2023/05/03 11:43:08;;;;;;;4.90;4.40;;;24.30;51.30;;;;;;5087892;28;20284;-70
2023/05/03 11:45:42;;;;;;;5.00;4.47;;;24.30;50.50;;;;;;5073520;28;20278;-69
2023/05/03 11:48:10;;;;;;;4.10;3.73;;;24.30;50.10;;;;;;5073801;28;20204;-70
2023/05/03 11:50:50;;;;;;;5.40;4.13;;;24.40;50.90;;;;;;5073598;28;20233;-70
2023/05/03 11:53:18;;;;;;;5.13;3.27;;;24.40;50.10;;;;;;5073312;28;20582;-70
2023/05/03 11:55:48;;;;;;;3.93;3.43;;;24.60;51.30;;;;;;5073633;28;20223;-69
2023/05/03 11:58:16;;;;;;;5.30;4.50;;;24.60;51.40;;;;;;5073196;28;20250;-70
2023/05/03 12:00:44;;;;;;;4.47;4.07;;;24.70;51.10;;;;;;5073199;28;20212;-71
2023/05/03 12:03:16;;;;;;;3.90;3.50;;;24.80;50.40;;;;;;5073310;28;20287;-71
2023/05/03 12:05:48;;;;;;;4.40;3.67;;;24.90;51.10;;;;;;5084576;28;20215;-70
2023/05/03 12:08:18;;;;;;;4.00;3.63;;;25.00;50.50;;;;;;5077359;28;20375;-70
2023/05/03 12:10:47;;;;;;;4.07;3.67;;;24.90;49.20;;;;;;5073330;28;20239;-71
2023/05/03 12:13:15;;;;;;;4.40;3.70;;;24.90;49.40;;;;;;5073221;28;20205;-71
2023/05/03 12:15:44;;;;;;;5.30;3.30;;;25.00;48.90;;;;;;5072917;28;20256;-70
2023/05/03 12:18:12;;;;;;;5.33;4.37;;;25.10;48.50;;;;;;5072108;28;20244;-70
2023/05/03 12:20:40;;;;;;;5.47;4.00;;;25.20;47.50;;;;;;5071692;28;20205;-71
2023/05/03 12:23:08;;;;;;;3.87;3.40;;;25.20;48.10;;;;;;5071549;28;20300;-70
2023/05/03 12:25:36;;;;;;;5.77;4.00;;;25.30;47.70;;;;;;5071579;28;20207;-70
2023/05/03 12:28:06;;;;;;;3.40;3.10;;;25.40;47.30;;;;;;5071609;28;20216;-70
2023/05/03 12:30:33;;;;;;;7.63;4.30;;;25.50;47.80;;;;;;5071105;28;20209;-70
2023/05/03 12:33:00;;;;;;;6.47;3.80;;;25.50;47.60;;;;;;5085445;28;20232;-70
2023/05/03 12:35:27;;;;;;;4.47;3.47;;;25.50;47.30;;;;;;5091474;28;20235;-70
2023/05/03 12:37:54;;;;;;;4.50;3.67;;;25.50;47.70;;;;;;5091618;28;20770;-70
2023/05/03 12:40:26;;;;;;;4.33;3.93;;;25.50;47.50;;;;;;5088008;28;20739;-70
2023/05/03 12:42:54;;;;;;;7.50;3.77;;;25.60;47.30;;;;;;5074596;28;20264;-70
2023/05/03 12:45:23;;;;;;;3.80;3.03;;;25.60;47.10;;;;;;5070579;28;20278;-70
2023/05/03 12:47:50;;;;;;;4.73;3.20;;;25.70;47.00;;;;;;5071099;28;20310;-70
2023/05/03 12:50:17;;;;;;;4.37;3.20;;;25.70;46.70;;;;;;5075857;28;20664;-70
2023/05/03 12:52:43;;;;;;;4.30;3.40;;;25.80;46.50;;;;;;5091203;28;20219;-70
2023/05/03 12:55:10;;;;;;;4.70;3.60;;;25.70;46.40;;;;;;5091156;28;20228;-70
2023/05/03 12:57:38;;;;;;;4.27;3.87;;;25.60;45.40;;;;;;5091247;28;20236;-70
2023/05/03 13:00:06;;;;;;;5.20;4.00;;;25.60;45.40;;;;;;5091091;28;20287;-70
2023/05/03 13:02:37;;;;;;;6.80;4.10;;;25.60;44.90;;;;;;5091025;28;20243;-70
2023/05/03 13:05:05;;;;;;;4.47;3.63;;;25.60;44.90;;;;;;5091131;28;20196;-70
2023/05/03 13:07:33;;;;;;;4.50;3.37;;;25.60;46.00;;;;;;5080676;28;20201;-72
2023/05/03 13:10:00;;;;;;;3.50;3.20;;;25.70;46.10;;;;;;5070975;28;20234;-69
2023/05/03 13:12:27;;;;;;;3.47;2.90;;;25.70;46.10;;;;;;5070577;28;20200;-70
2023/05/03 13:14:54;;;;;;;4.10;3.57;;;25.80;45.80;;;;;;5070917;28;20236;-71
2023/05/03 13:17:22;;;;;;;4.00;3.10;;;25.90;45.30;;;;;;5070749;28;20205;-70
2023/05/03 13:19:51;;;;;;;5.13;4.17;;;25.90;45.90;;;;;;5070204;28;20255;-70
2023/05/03 13:22:18;;;;;;;4.33;3.10;;;26.00;45.10;;;;;;5070346;28;20760;-70
2023/05/03 13:24:46;;;;;;;4.43;3.30;;;26.00;45.40;;;;;;5070738;28;20258;-71
2023/05/03 13:27:14;;;;;;;4.80;3.40;;;26.10;45.40;;;;;;5070533;28;20585;-70
2023/05/03 13:29:42;;;;;;;3.47;3.07;;;26.10;44.80;;;;;;5070682;28;20746;-70